LIRS/GRS METAR and TAF weather

Enter ICAO airport designator
Station Type Date Time Source
LIRS METAR 2024/05/28 21:55 UTC NOAA

LIRS 282155Z 02004KT CAVOK 17/16 Q1014


Station Type Date Time Source
LIRS Decoded METAR 2024/05/28 21:55 UTC NOAA

Grosseto, Italy (LIRS) 42-45N 011-04E 7M
May 28, 2024 - 05:55 PM EDT / 2024.05.28 2155 UTC
Wind: from the NNE (020 degrees) at 5 MPH (4 KT):0
Visibility: greater than 7 mile(s):0
Temperature: 62 F (17 C)
Dew Point: 60 F (16 C)
Relative Humidity: 93%
Pressure (altimeter): 29.94 in. Hg (1014 hPa)
ob: LIRS 282155Z 02004KT CAVOK 17/16 Q1014
cycle: 22

Station Type Date Time Source
LIRS TAF 2024/03/18 12:24 UTC NOAA